SBPASBCT

Guest
Details From SBPA - Salgado Filho
To SBCT - Afonso Pena
Flight Number -
Tags decoded
Created
Modified
Stats Distance 293 nm / 543 km
Max Altitude 0 ft / 0 m
Waypoints 3
Social Downloads 8
Likes 0
Share VATSIM

Download

Looking for another format? Having issues loading an existing format? Contact us
Advertisement - Login to hide

Notes

Requested: SBPA CXS UW6 NITGO UZ25 LUPTA SBCT Unmatched points: UW6 NITGO UZ25 LUPTA

Route

SBPA CXS SBCT

ID Type Via Altitude Latitude Longitude Leg Dist Tot Dist Heading (true) Name
O SBPA APT - 0 ft / 0 m -29.99443˚ -51.17143˚ - 0 nm - Salgado Filho
CXS VOR - 0 ft / 0 m -29.19800˚ -51.18867˚ 47 nm 47 nm 359° / 359° DO SUL VOR-DME
O SBCT APT - 0 ft / 0 m -25.52888˚ -49.17306˚ 245 nm 293 nm 26° / 26° Afonso Pena

Altitude Profile

Advertisement - Login to hide

Weather


0- 5 10 15 20 25 30 35+ Temperature / ° C

Clouds and Precipitation
Forecast for 2018-05-25 00:00 UTC. Updated 4 hours ago

Ground ~20,000 ft ~40,000 ft Winds

SBPA

Details ICAO SBPA (POA)
Name Salgado Filho
Region Brazil
Timezone America/Sao_Paulo (UTC-3.0)
Stats Elevation 11 ft / 3 m (AMSL)
Location -29.994428° -51.171426°
Runways 1
Magnetic Variation 16.945° W

METAR

SBPA 250300Z VRB01KT 4000 BR NSC 08/08 Q1025

Decode

TAF

Not found

Departure Runways

ID Width Length Bearing (true) Bearing (mag) Surface Threshold Offset Overrun Length
11 138 ft / 42 m 7,487 ft / 2,282 m 91.60° 108.55° Asphalt 0 ft / 0 m 230 ft / 70 m
29 138 ft / 42 m 7,487 ft / 2,282 m 271.59° 288.54° Asphalt 0 ft / 0 m 197 ft / 60 m

SBCT

Details ICAO SBCT (CWB)
Name Afonso Pena
Region Brazil
Timezone America/Sao_Paulo (UTC-3.0)
Stats Elevation 2,988 ft / 911 m (AMSL)
Location -25.528885° -49.173062°
Runways 2
Magnetic Variation 19.675° W

METAR

SBCT 250300Z 08006KT 9999 OVC006 13/12 Q1026

Decode

TAF

TAF SBCT 242100Z 2500/2524 08006KT 9999 BKN007 TN11/2509Z TX17/2518Z PROB30 TEMPO 2502/2506 4000 RADZ BR BKN004 BKN012 PROB40 2506/2511 0500 FG OVC002 BECMG 2512/2514 BKN010 BKN020 BECMG 2514/2516 BKN025 BECMG 2516/2518 SCT020 BECMG 2521/2523 BKN008 RMK PDJ

Decode

Destination Runways

ID Width Length Bearing (true) Bearing (mag) Surface Threshold Offset Overrun Length
11 148 ft / 45 m 5,909 ft / 1,801 m 91.79° 111.47° Asphalt 0 ft / 0 m 0 ft / 0 m
15 148 ft / 45 m 7,290 ft / 2,222 m 134.76° 154.44° Asphalt 0 ft / 0 m 190 ft / 58 m
29 148 ft / 45 m 5,909 ft / 1,801 m 271.78° 291.46° Asphalt 0 ft / 0 m 0 ft / 0 m
33 148 ft / 45 m 7,290 ft / 2,222 m 314.75° 334.43° Asphalt 0 ft / 0 m 185 ft / 56 m

Approach Navaids

Runway Type Ident Frequency Range Bearing (true) Bearing (mag) Slope Elevation
15 Localiser ICT 109.30 MHz 18 nm / 33 km 134.93° 154.60° - 2,990 ft / 911 m (AMSL)
15 Glidescope ICT 109.30 MHz 10 nm / 19 km 134.75° 154.43° 3.04° 2,990 ft / 911 m (AMSL)

Popular Alternatives